createdAt,value
2023-02-14T00:00:10.744Z,26.27
2023-02-14T00:02:38.709Z,29.75
2023-02-14T00:05:07.261Z,27.98
2023-02-14T00:07:36.601Z,28.73
2023-02-14T00:10:04.542Z,31.70
2023-02-14T00:12:32.391Z,32.47
2023-02-14T00:15:23.119Z,37.33
2023-02-14T00:17:51.470Z,36.72
2023-02-14T00:20:19.652Z,33.00
2023-02-14T00:22:48.840Z,35.38
2023-02-14T00:25:17.200Z,32.05
2023-02-14T00:27:45.071Z,33.97
2023-02-14T00:30:14.693Z,32.03
2023-02-14T00:32:43.607Z,36.20
2023-02-14T00:35:12.360Z,32.45
2023-02-14T00:37:40.219Z,34.10
2023-02-14T00:40:10.402Z,34.40
2023-02-14T00:42:38.288Z,36.70
2023-02-14T00:45:06.626Z,36.15
2023-02-14T00:47:34.721Z,35.13
2023-02-14T00:50:04.275Z,38.55
2023-02-14T00:52:32.755Z,38.10
2023-02-14T00:55:00.645Z,36.72
2023-02-14T00:57:29.917Z,34.25
2023-02-14T00:59:57.795Z,35.88
2023-02-14T01:02:25.696Z,33.65
2023-02-14T01:04:53.571Z,35.35
2023-02-14T01:07:22.694Z,36.65
2023-02-14T01:09:50.629Z,32.03
2023-02-14T01:12:18.597Z,36.83
2023-02-14T01:14:47.828Z,35.30
2023-02-14T01:17:15.726Z,34.10
2023-02-14T01:19:43.620Z,31.95
2023-02-14T01:22:11.496Z,28.25
2023-02-14T01:24:39.400Z,24.55
2023-02-14T01:27:07.255Z,24.45
2023-02-14T01:29:35.133Z,25.08
2023-02-14T01:32:04.450Z,22.63
2023-02-14T01:34:32.359Z,21.13
2023-02-14T01:37:00.226Z,24.13
2023-02-14T01:39:28.105Z,22.55
2023-02-14T01:41:56.693Z,22.08
2023-02-14T01:44:57.164Z,21.00
2023-02-14T01:47:28.830Z,22.70
2023-02-14T01:50:01.815Z,23.42
2023-02-14T01:52:34.549Z,21.52
2023-02-14T01:55:05.940Z,21.40
2023-02-14T01:57:38.264Z,23.13
2023-02-14T02:00:26.129Z,23.65
2023-02-14T02:02:56.668Z,21.70
2023-02-14T02:05:24.976Z,21.83
2023-02-14T02:07:54.058Z,22.98
2023-02-14T02:10:22.460Z,21.25
2023-02-14T02:12:52.365Z,22.10
2023-02-14T02:15:21.306Z,24.38
2023-02-14T02:18:01.526Z,22.42
2023-02-14T02:20:54.638Z,23.80
2023-02-14T02:23:52.937Z,23.42
2023-02-14T02:26:50.840Z,21.03
2023-02-14T02:29:53.696Z,22.55
2023-02-14T02:32:55.787Z,22.88
2023-02-14T02:35:47.906Z,21.25
2023-02-14T02:38:29.415Z,21.00
2023-02-14T02:41:05.081Z,22.58
2023-02-14T02:43:45.822Z,22.50
2023-02-14T02:46:39.576Z,27.20
2023-02-14T02:49:15.085Z,30.38
2023-02-14T02:52:09.572Z,28.00
2023-02-14T02:54:43.478Z,24.10
2023-02-14T02:57:16.341Z,23.48
2023-02-14T02:59:46.485Z,22.85
2023-02-14T03:02:19.210Z,22.35
2023-02-14T03:04:55.874Z,22.88
2023-02-14T03:07:39.014Z,26.90
2023-02-14T03:10:12.211Z,29.48
2023-02-14T03:13:10.333Z,32.22
2023-02-14T03:15:48.669Z,32.78
2023-02-14T03:18:38.847Z,35.85
2023-02-14T03:21:12.609Z,33.17
2023-02-14T03:23:50.605Z,33.10
2023-02-14T03:28:54.568Z,28.92
2023-02-14T03:31:29.767Z,27.38
2023-02-14T03:34:01.480Z,28.15
2023-02-14T03:36:34.848Z,28.13
2023-02-14T03:39:11.499Z,28.48
2023-02-14T03:41:44.874Z,25.92
2023-02-14T03:44:18.068Z,26.33
2023-02-14T03:46:51.083Z,28.00
2023-02-14T03:49:28.982Z,26.83
2023-02-14T03:54:29.454Z,27.08
2023-02-14T03:57:02.106Z,29.02
2023-02-14T03:59:30.855Z,28.77
2023-02-14T04:02:07.254Z,26.73
2023-02-14T04:04:38.810Z,27.63
2023-02-14T04:07:11.406Z,27.77
2023-02-14T04:09:40.741Z,30.30
2023-02-14T04:12:09.314Z,28.92
2023-02-14T04:14:37.947Z,29.63
2023-02-14T04:17:24.381Z,29.98
2023-02-14T04:19:52.263Z,31.23
2023-02-14T04:22:20.245Z,28.17
2023-02-14T04:24:49.522Z,27.02
2023-02-14T04:27:17.464Z,30.08
2023-02-14T04:29:47.333Z,28.05
2023-02-14T04:32:17.947Z,28.50
2023-02-14T04:34:45.867Z,27.50
2023-02-14T04:37:14.304Z,27.95
2023-02-14T04:39:42.190Z,28.05
2023-02-14T04:42:11.438Z,29.33
2023-02-14T04:44:39.331Z,26.58
2023-02-14T04:47:07.915Z,28.58
2023-02-14T04:49:36.530Z,30.65
2023-02-14T04:52:04.624Z,29.90
2023-02-14T04:54:32.966Z,28.80
2023-02-14T04:57:01.420Z,28.95
2023-02-14T04:59:30.625Z,27.75
2023-02-14T05:01:58.567Z,26.35
2023-02-14T05:04:26.582Z,28.55
2023-02-14T05:06:54.449Z,30.27
2023-02-14T05:09:22.545Z,27.52
2023-02-14T05:11:50.406Z,27.95
2023-02-14T05:14:18.270Z,27.35
2023-02-14T05:16:47.582Z,27.02
2023-02-14T05:19:15.524Z,27.10
2023-02-14T05:21:43.400Z,26.63
2023-02-14T05:24:11.276Z,26.55
2023-02-14T05:26:39.147Z,26.83
2023-02-14T05:29:07.007Z,29.30
2023-02-14T05:31:35.376Z,30.00
2023-02-14T05:34:04.824Z,28.00
2023-02-14T05:36:32.718Z,26.65
2023-02-14T05:39:00.720Z,27.77
2023-02-14T05:41:28.674Z,27.63
2023-02-14T05:43:56.521Z,27.55
2023-02-14T05:46:24.613Z,29.17
2023-02-14T05:48:52.556Z,27.38
2023-02-14T05:51:21.777Z,26.67
2023-02-14T05:53:49.640Z,26.75
2023-02-14T05:56:17.596Z,27.02
2023-02-14T05:58:45.545Z,26.33
2023-02-14T06:01:13.447Z,25.10
2023-02-14T06:03:41.340Z,25.17
2023-02-14T06:06:09.218Z,26.48
2023-02-14T06:08:38.491Z,25.98
2023-02-14T06:11:06.598Z,25.42
2023-02-14T06:13:34.517Z,27.40
2023-02-14T06:16:04.255Z,26.80
2023-02-14T06:18:32.148Z,29.52
2023-02-14T06:21:00.331Z,30.20
2023-02-14T06:23:28.367Z,32.30
2023-02-14T06:25:57.574Z,29.63
2023-02-14T06:28:25.465Z,27.60
2023-02-14T06:30:53.449Z,29.50
2023-02-14T06:33:21.451Z,28.25
2023-02-14T06:35:49.342Z,28.27
2023-02-14T06:38:17.240Z,33.92
2023-02-14T06:40:45.108Z,31.83
2023-02-14T06:43:14.322Z,32.58
2023-02-14T06:45:43.674Z,29.73
2023-02-14T06:48:11.724Z,28.80
2023-02-14T06:50:39.593Z,28.63
2023-02-14T06:53:07.471Z,29.10
2023-02-14T06:55:35.349Z,32.42
2023-02-14T06:58:03.217Z,30.20
2023-02-14T07:00:32.427Z,30.55
2023-02-14T07:03:00.473Z,29.52
2023-02-14T07:05:28.517Z,30.23
2023-02-14T07:07:56.406Z,28.38
2023-02-14T07:10:24.375Z,28.42
2023-02-14T07:12:52.297Z,28.23
2023-02-14T07:15:20.452Z,28.83
2023-02-14T07:17:49.664Z,27.92
2023-02-14T07:20:18.212Z,28.80
2023-02-14T07:22:46.125Z,28.80
2023-02-14T07:25:14.331Z,26.63
2023-02-14T07:27:42.252Z,29.10
2023-02-14T07:30:11.459Z,26.75
2023-02-14T07:32:40.028Z,27.98
2023-02-14T07:35:10.115Z,27.17
2023-02-14T07:37:38.208Z,26.50
2023-02-14T07:40:14.358Z,27.20
2023-02-14T07:42:43.241Z,27.60
2023-02-14T07:45:21.187Z,28.55
2023-02-14T07:47:50.344Z,29.30
2023-02-14T07:50:20.396Z,28.10
2023-02-14T07:52:48.298Z,27.15
2023-02-14T07:55:16.671Z,26.95
2023-02-14T07:57:44.554Z,26.10
2023-02-14T08:00:14.460Z,26.33
2023-02-14T08:02:42.422Z,30.92
2023-02-14T08:05:11.137Z,29.23
2023-02-14T08:07:40.383Z,30.75
2023-02-14T08:10:09.744Z,28.73
2023-02-14T08:12:56.251Z,32.05
2023-02-14T08:15:41.873Z,28.27
2023-02-14T08:18:09.843Z,29.30
2023-02-14T08:20:37.704Z,28.75
2023-02-14T08:23:07.056Z,29.60
2023-02-14T08:25:35.049Z,30.27
2023-02-14T08:28:03.576Z,28.13
2023-02-14T08:30:31.926Z,28.17
2023-02-14T08:32:59.985Z,26.77
2023-02-14T08:35:28.169Z,25.27
2023-02-14T08:37:56.064Z,24.25
2023-02-14T08:40:25.524Z,21.73
2023-02-14T08:42:53.474Z,21.63
2023-02-14T08:45:21.793Z,19.95
2023-02-14T08:47:49.892Z,21.02
2023-02-14T08:50:19.220Z,22.45
2023-02-14T08:52:47.437Z,21.65
2023-02-14T08:55:15.427Z,20.60
2023-02-14T08:57:44.728Z,19.80
2023-02-14T09:00:13.460Z,18.88
2023-02-14T09:02:41.391Z,18.23
2023-02-14T09:05:10.640Z,18.52
2023-02-14T09:07:38.625Z,18.23
2023-02-14T09:10:08.023Z,19.38
2023-02-14T09:12:35.916Z,18.05
2023-02-14T09:15:05.686Z,17.00
2023-02-14T09:17:34.267Z,16.75
2023-02-14T09:20:02.189Z,17.83
2023-02-14T09:22:30.087Z,18.95
2023-02-14T09:24:58.022Z,16.05
2023-02-14T09:27:26.454Z,17.70
2023-02-14T09:29:54.426Z,17.30
2023-02-14T09:32:23.657Z,18.08
2023-02-14T09:34:51.609Z,17.38
2023-02-14T09:37:19.507Z,18.33
2023-02-14T09:39:47.512Z,18.90
2023-02-14T09:42:42.042Z,17.30
2023-02-14T09:45:14.091Z,19.13
2023-02-14T09:47:48.339Z,20.55
2023-02-14T09:50:23.227Z,17.95
2023-02-14T09:52:54.929Z,17.73
2023-02-14T09:55:23.954Z,17.83
2023-02-14T09:58:06.276Z,17.13
2023-02-14T10:00:38.954Z,15.52
2023-02-14T10:03:26.944Z,17.85
2023-02-14T10:06:01.177Z,17.20
2023-02-14T10:08:43.275Z,16.17
2023-02-14T10:11:16.540Z,16.38
2023-02-14T10:13:49.034Z,15.15
2023-02-14T10:16:25.696Z,15.38
2023-02-14T10:19:01.477Z,15.82
2023-02-14T10:21:33.292Z,13.75
2023-02-14T10:24:05.500Z,16.15
2023-02-14T10:26:38.189Z,15.18
2023-02-14T10:29:12.090Z,14.13
2023-02-14T10:31:50.183Z,14.93
2023-02-14T10:37:17.098Z,13.65
2023-02-14T10:40:05.451Z,15.85
2023-02-14T10:42:44.113Z,14.23
2023-02-14T10:45:19.412Z,15.07
2023-02-14T10:47:55.848Z,14.95
2023-02-14T10:50:33.006Z,15.82
2023-02-14T10:53:11.055Z,14.17
2023-02-14T10:58:14.769Z,13.50
2023-02-14T11:00:54.651Z,13.75
2023-02-14T11:03:23.697Z,15.10
2023-02-14T11:05:52.984Z,14.32
2023-02-14T11:08:26.832Z,14.20
2023-02-14T11:10:56.599Z,14.65
2023-02-14T11:13:36.990Z,14.80
2023-02-14T11:16:07.036Z,13.30
2023-02-14T11:18:36.579Z,13.18
2023-02-14T11:21:10.141Z,13.95
2023-02-14T11:23:40.948Z,13.60
2023-02-14T11:26:18.457Z,12.32
2023-02-14T11:28:56.822Z,13.43
2023-02-14T11:31:34.299Z,12.30
2023-02-14T11:34:04.976Z,13.02
2023-02-14T11:36:41.957Z,12.98
2023-02-14T11:39:23.423Z,12.48
2023-02-14T11:41:52.866Z,12.75
2023-02-14T11:44:23.480Z,13.50
2023-02-14T11:46:53.923Z,11.93
2023-02-14T11:49:40.085Z,12.35
2023-02-14T11:52:17.319Z,12.20
2023-02-14T11:54:50.226Z,12.57
2023-02-14T11:57:23.333Z,11.95
2023-02-14T11:59:54.203Z,11.43
2023-02-14T12:02:27.950Z,11.27
2023-02-14T12:04:59.197Z,11.05
2023-02-14T12:07:31.898Z,10.85
2023-02-14T12:10:16.333Z,9.77
2023-02-14T12:12:51.172Z,10.52
2023-02-14T12:15:29.091Z,10.57
2023-02-14T12:20:39.091Z,9.65
2023-02-14T12:23:16.162Z,10.68
2023-02-14T12:25:50.947Z,9.77
2023-02-14T12:28:25.368Z,8.85
2023-02-14T12:30:53.366Z,8.40
2023-02-14T12:33:23.484Z,8.82
2023-02-14T12:36:01.452Z,7.85
2023-02-14T12:41:22.495Z,6.13
2023-02-14T12:43:53.373Z,6.75
2023-02-14T12:46:34.430Z,7.43
2023-02-14T12:49:22.546Z,8.27
2023-02-14T12:51:59.561Z,7.70
2023-02-14T12:54:45.989Z,8.77
2023-02-14T12:57:27.740Z,8.82
2023-02-14T13:00:07.306Z,9.30
2023-02-14T13:03:13.503Z,8.38
2023-02-14T13:05:54.399Z,8.18
2023-02-14T13:08:36.191Z,8.35
2023-02-14T13:11:16.283Z,9.45
2023-02-14T13:13:55.842Z,9.52
2023-02-14T13:16:29.350Z,8.10
2023-02-14T13:19:04.408Z,7.63
2023-02-14T13:21:38.079Z,8.38
2023-02-14T13:24:16.065Z,7.75
2023-02-14T13:26:49.649Z,8.30
2023-02-14T13:29:20.475Z,7.07
2023-02-14T13:31:49.710Z,8.48
2023-02-14T13:34:26.654Z,7.78
2023-02-14T13:36:56.307Z,7.05
2023-02-14T13:39:32.044Z,7.93
2023-02-14T13:42:03.883Z,12.57
2023-02-14T13:44:44.329Z,15.73
2023-02-14T13:47:19.525Z,16.58
2023-02-14T13:49:50.997Z,16.10
2023-02-14T13:52:40.965Z,17.65
2023-02-14T13:55:15.584Z,17.58
2023-02-14T13:57:45.121Z,17.35
2023-02-14T14:00:36.144Z,16.75
2023-02-14T14:03:04.876Z,17.63
2023-02-14T14:06:02.059Z,18.20
2023-02-14T14:08:38.386Z,17.10
2023-02-14T14:11:11.252Z,17.35
2023-02-14T14:14:02.530Z,17.92
2023-02-14T14:16:33.384Z,17.65
2023-02-14T14:19:04.663Z,18.23
2023-02-14T14:21:35.191Z,18.75
2023-02-14T14:24:21.778Z,18.30
2023-02-14T14:26:52.459Z,18.25
2023-02-14T14:29:26.661Z,17.45
2023-02-14T14:31:56.418Z,19.27
2023-02-14T14:34:26.171Z,20.23
2023-02-14T14:37:03.214Z,19.52
2023-02-14T14:39:33.939Z,19.52
2023-02-14T14:42:09.719Z,19.67
2023-02-14T14:44:47.430Z,18.58
2023-02-14T14:47:20.508Z,19.20
2023-02-14T14:49:49.153Z,20.45
2023-02-14T14:52:32.985Z,19.05
2023-02-14T14:55:02.818Z,18.90
2023-02-14T14:57:31.122Z,18.90
2023-02-14T15:00:28.504Z,19.20
2023-02-14T15:03:01.970Z,18.73
2023-02-14T15:05:33.206Z,19.17
2023-02-14T15:08:15.262Z,18.95
2023-02-14T15:10:44.084Z,19.58
2023-02-14T15:13:32.500Z,19.23
2023-02-14T15:16:03.934Z,17.77
2023-02-14T15:18:31.958Z,18.67
2023-02-14T15:21:01.293Z,18.58
2023-02-14T15:23:29.418Z,18.95
2023-02-14T15:25:57.324Z,19.52
2023-02-14T15:28:30.718Z,18.40
2023-02-14T15:31:03.450Z,18.27
2023-02-14T15:33:33.944Z,19.42
2023-02-14T15:36:06.025Z,19.30
2023-02-14T15:38:36.302Z,19.75
2023-02-14T15:41:04.534Z,21.25
2023-02-14T15:43:34.338Z,20.48
2023-02-14T15:46:27.124Z,19.55
2023-02-14T15:48:55.834Z,20.23
2023-02-14T15:51:26.989Z,22.20
2023-02-14T15:53:58.230Z,21.63
2023-02-14T15:56:29.104Z,22.48
2023-02-14T15:59:01.366Z,21.02
2023-02-14T16:01:32.776Z,22.08
2023-02-14T16:04:03.027Z,21.45
2023-02-14T16:06:37.227Z,22.15
2023-02-14T16:09:07.120Z,23.45
2023-02-14T16:11:37.114Z,22.83
2023-02-14T16:14:31.161Z,23.65
2023-02-14T16:17:02.988Z,22.20
2023-02-14T16:19:37.082Z,24.15
2023-02-14T16:22:06.666Z,23.30
2023-02-14T16:24:35.998Z,23.67
2023-02-14T16:27:06.950Z,23.95
2023-02-14T16:29:36.712Z,24.60
2023-02-14T16:32:17.062Z,23.45
2023-02-14T16:34:47.149Z,24.50
2023-02-14T16:37:21.406Z,23.77
2023-02-14T16:39:50.342Z,24.10
2023-02-14T16:42:19.647Z,24.65
2023-02-14T16:44:49.036Z,24.08
2023-02-14T16:47:20.035Z,25.40
2023-02-14T16:49:48.666Z,25.77
2023-02-14T16:52:19.231Z,24.85
2023-02-14T16:54:47.121Z,26.10
2023-02-14T16:57:21.418Z,26.73
2023-02-14T16:59:50.229Z,25.63
2023-02-14T17:02:19.734Z,26.38
2023-02-14T17:04:47.677Z,25.73
2023-02-14T17:07:17.055Z,25.77
2023-02-14T17:09:49.303Z,26.23
2023-02-14T17:12:21.923Z,27.02
2023-02-14T17:14:52.761Z,26.85
2023-02-14T17:17:22.171Z,26.35
2023-02-14T17:19:52.668Z,25.83
2023-02-14T17:22:20.999Z,26.42
2023-02-14T17:24:48.868Z,26.73
2023-02-14T17:27:16.749Z,27.58
2023-02-14T17:29:44.599Z,26.98
2023-02-14T17:32:13.760Z,27.05
2023-02-14T17:34:43.156Z,29.23
2023-02-14T17:37:11.099Z,29.77
2023-02-14T17:39:39.040Z,26.92
2023-02-14T17:42:07.036Z,30.00
2023-02-14T17:44:35.897Z,27.95
2023-02-14T17:47:04.009Z,29.30
2023-02-14T17:49:31.928Z,29.02
2023-02-14T17:52:03.518Z,29.70
2023-02-14T17:54:31.418Z,28.58
2023-02-14T17:56:59.315Z,31.92
2023-02-14T17:59:27.240Z,29.70
2023-02-14T18:01:55.140Z,29.65
2023-02-14T18:04:23.016Z,29.65
2023-02-14T18:06:50.952Z,28.77
2023-02-14T18:09:21.498Z,31.48
2023-02-14T18:11:50.457Z,32.88
2023-02-14T18:14:18.440Z,33.97
2023-02-14T18:16:46.659Z,33.03
2023-02-14T18:19:15.970Z,30.50
2023-02-14T18:21:46.206Z,29.77
2023-02-14T18:24:15.169Z,31.05
2023-02-14T18:26:44.982Z,31.80
2023-02-14T18:29:13.237Z,34.97
2023-02-14T18:31:42.758Z,32.00
2023-02-14T18:34:11.631Z,33.67
2023-02-14T18:36:41.469Z,31.17
2023-02-14T18:39:10.307Z,29.67
2023-02-14T18:41:38.262Z,32.25
2023-02-14T18:44:07.958Z,31.88
2023-02-14T18:46:37.485Z,33.33
2023-02-14T18:49:08.283Z,32.22
2023-02-14T18:51:39.307Z,31.65
2023-02-14T18:54:08.268Z,32.25
2023-02-14T18:56:38.065Z,33.38
2023-02-14T18:59:09.078Z,29.92
2023-02-14T19:01:39.648Z,31.35
2023-02-14T19:04:11.982Z,32.13
2023-02-14T19:06:41.556Z,33.15
2023-02-14T19:09:11.592Z,32.83
2023-02-14T19:11:39.526Z,31.42
2023-02-14T19:14:10.705Z,31.88
2023-02-14T19:16:43.808Z,31.10
2023-02-14T19:19:12.128Z,33.92
2023-02-14T19:21:40.040Z,33.85
2023-02-14T19:24:11.627Z,35.72
2023-02-14T19:26:40.998Z,35.58
2023-02-14T19:29:12.333Z,34.38
2023-02-14T19:31:42.476Z,34.05
2023-02-14T19:34:17.357Z,34.15
2023-02-14T19:36:45.960Z,35.28
2023-02-14T19:39:14.402Z,36.17
2023-02-14T19:41:42.570Z,34.42
2023-02-14T19:44:14.666Z,35.05
2023-02-14T19:46:43.293Z,34.10
2023-02-14T19:49:14.341Z,32.75
2023-02-14T19:51:43.034Z,33.95
2023-02-14T19:54:12.455Z,34.83
2023-02-14T19:56:42.483Z,36.05
2023-02-14T19:59:15.185Z,33.97
2023-02-14T20:01:46.270Z,35.00
2023-02-14T20:04:16.291Z,34.35
2023-02-14T20:06:45.700Z,35.50
2023-02-14T20:09:14.565Z,32.35
2023-02-14T20:11:48.997Z,34.95
2023-02-14T20:14:20.534Z,34.53
2023-02-14T20:16:49.070Z,36.10
2023-02-14T20:19:18.683Z,35.83
2023-02-14T20:21:49.918Z,34.38
2023-02-14T20:24:20.227Z,36.92
2023-02-14T20:26:48.639Z,34.63
2023-02-14T20:29:18.608Z,35.28
2023-02-14T20:31:48.861Z,35.35
2023-02-14T20:34:17.234Z,35.50
2023-02-14T20:36:49.519Z,34.67
2023-02-14T20:39:17.673Z,35.00
2023-02-14T20:41:49.724Z,35.58
2023-02-14T20:44:21.597Z,36.70
2023-02-14T20:46:51.454Z,35.35
2023-02-14T20:49:20.129Z,33.95
2023-02-14T20:51:49.666Z,33.17
2023-02-14T20:54:18.297Z,33.03
2023-02-14T20:56:46.302Z,32.53
2023-02-14T20:59:14.722Z,33.92
2023-02-14T21:01:44.136Z,33.38
2023-02-14T21:04:13.989Z,33.95
2023-02-14T21:06:42.250Z,32.97
2023-02-14T21:09:10.133Z,32.67
2023-02-14T21:11:38.055Z,32.17
2023-02-14T21:14:06.054Z,31.40
2023-02-14T21:16:33.958Z,33.25
2023-02-14T21:19:04.216Z,31.05
2023-02-14T21:21:35.005Z,33.90
2023-02-14T21:24:04.905Z,35.80
2023-02-14T21:26:32.884Z,32.47
2023-02-14T21:29:01.562Z,34.92
2023-02-14T21:31:29.582Z,32.70
2023-02-14T21:33:59.374Z,31.05
2023-02-14T21:36:30.280Z,33.08
2023-02-14T21:38:59.462Z,33.88
2023-02-14T21:41:29.708Z,32.88
2023-02-14T21:43:59.501Z,31.65
2023-02-14T21:46:31.089Z,34.10
2023-02-14T21:49:18.167Z,30.45
2023-02-14T21:51:48.098Z,30.80
2023-02-14T21:54:17.597Z,30.67
2023-02-14T21:56:46.064Z,30.83
2023-02-14T21:59:15.113Z,32.75
2023-02-14T22:01:43.610Z,30.02
2023-02-14T22:04:13.378Z,31.17
2023-02-14T22:06:42.687Z,34.10
2023-02-14T22:09:14.416Z,31.98
2023-02-14T22:11:42.444Z,31.52
2023-02-14T22:14:10.373Z,33.80
2023-02-14T22:16:38.472Z,32.50
2023-02-14T22:19:06.634Z,31.13
2023-02-14T22:21:35.223Z,32.92
2023-02-14T22:24:03.195Z,33.00
2023-02-14T22:26:35.334Z,32.00
2023-02-14T22:29:04.102Z,28.38
2023-02-14T22:31:35.283Z,29.98
2023-02-14T22:34:05.119Z,30.38
2023-02-14T22:36:33.316Z,32.05
2023-02-14T22:39:01.194Z,33.53
2023-02-14T22:41:29.287Z,32.92
2023-02-14T22:43:58.549Z,31.58
2023-02-14T22:46:28.659Z,28.83
2023-02-14T22:48:57.679Z,30.05
2023-02-14T22:51:27.492Z,31.10
2023-02-14T22:53:57.314Z,29.02
2023-02-14T22:56:26.398Z,26.98
2023-02-14T22:58:55.177Z,28.10
2023-02-14T23:01:25.514Z,29.63
2023-02-14T23:03:54.917Z,28.75
2023-02-14T23:06:23.504Z,28.75
2023-02-14T23:08:51.431Z,29.45
2023-02-14T23:11:22.082Z,32.22
2023-02-14T23:14:07.564Z,29.58
2023-02-14T23:16:54.409Z,29.63
2023-02-14T23:19:41.604Z,29.15
2023-02-14T23:22:11.664Z,29.40
2023-02-14T23:24:39.807Z,30.08
2023-02-14T23:27:08.613Z,30.60
2023-02-14T23:29:37.588Z,30.77
2023-02-14T23:32:07.318Z,28.70
2023-02-14T23:34:37.543Z,29.50
2023-02-14T23:37:06.633Z,30.73
2023-02-14T23:39:36.671Z,28.83
2023-02-14T23:42:05.462Z,27.17
2023-02-14T23:44:34.311Z,31.42
2023-02-14T23:47:04.896Z,28.77
2023-02-14T23:49:36.240Z,29.85
2023-02-14T23:52:05.070Z,29.63
2023-02-14T23:54:33.012Z,29.60
2023-02-14T23:57:01.415Z,28.45
2023-02-14T23:59:29.416Z,28.02
